Time,TemperatureF,DewpointF,PressureIn,WindDirection,WindDirectionDegrees,WindSpeedMPH,WindSpeedGustMPH,Humidity,HourlyPrecipIn,Conditions,Clouds,dailyrainin,SoftwareType,DateUTC
2013-05-29 00:05:00,73.5,43.0,29.74,ENE,69,9.0,16.0,34,0.00,,,0.00,weatherlink.com 1.10,2013-05-28 21:05:00,
2013-05-29 00:19:00,73.5,42.0,29.74,ENE,61,2.0,13.0,32,0.00,,,0.00,weatherlink.com 1.10,2013-05-28 21:19:00,
2013-05-29 00:34:00,73.4,42.0,29.74,NE,40,9.0,16.0,32,0.00,,,0.00,weatherlink.com 1.10,2013-05-28 21:34:00,
2013-05-29 00:49:00,72.5,44.0,29.73,ESE,105,4.0,11.0,36,0.00,,,0.00,weatherlink.com 1.10,2013-05-28 21:49:00,
2013-05-29 01:04:00,72.5,45.0,29.73,ENE,71,4.0,15.0,38,0.00,,,0.00,weatherlink.com 1.10,2013-05-28 22:04:00,
2013-05-29 01:19:00,72.3,44.0,29.71,East,80,1.0,5.0,37,0.00,,,0.00,weatherlink.com 1.10,2013-05-28 22:19:00,
2013-05-29 01:34:00,73.3,42.0,29.71,South,178,0.0,9.0,33,0.00,,,0.00,weatherlink.com 1.10,2013-05-28 22:34:00,
2013-05-29 01:49:00,72.4,43.0,29.70,NW,319,0.0,7.0,35,0.00,,,0.00,weatherlink.com 1.10,2013-05-28 22:49:00,
2013-05-29 02:04:00,72.8,43.0,29.69,NNW,333,0.0,2.0,34,0.00,,,0.00,weatherlink.com 1.10,2013-05-28 23:04:00,
2013-05-29 02:19:00,71.6,50.0,29.69,SW,220,0.0,12.0,47,0.00,,,0.00,weatherlink.com 1.10,2013-05-28 23:19:00,
2013-05-29 02:35:00,72.9,41.0,29.67,SW,219,1.0,11.0,32,0.00,,,0.00,weatherlink.com 1.10,2013-05-28 23:35:00,
2013-05-29 02:50:00,74.0,41.0,29.66,WSW,238,2.0,9.0,31,0.00,,,0.00,weatherlink.com 1.10,2013-05-28 23:50:00,
2013-05-29 03:05:00,73.0,43.0,29.66,North,351,1.0,9.0,34,0.00,,,0.00,weatherlink.com 1.10,2013-05-29 00:05:00,
2013-05-29 03:20:00,70.7,46.0,29.66,West,259,7.0,7.0,42,0.00,,,0.00,weatherlink.com 1.10,2013-05-29 00:20:00,
2013-05-29 03:35:00,72.8,47.0,29.64,SSW,201,5.0,11.0,40,0.00,,,0.00,weatherlink.com 1.10,2013-05-29 00:35:00,
2013-05-29 03:50:00,69.9,50.0,29.63,SW,217,2.0,7.0,49,0.00,,,0.00,weatherlink.com 1.10,2013-05-29 00:50:00,
2013-05-29 04:05:00,69.0,50.0,29.64,North,9,5.0,6.0,52,0.00,,,0.00,weatherlink.com 1.10,2013-05-29 01:05:00,
2013-05-29 04:20:00,69.1,50.0,29.64,NNW,336,0.0,1.0,50,0.00,,,0.00,weatherlink.com 1.10,2013-05-29 01:20:00,
2013-05-29 04:35:00,68.4,50.0,29.63,NNW,336,0.0,0.0,52,0.00,,,0.00,weatherlink.com 1.10,2013-05-29 01:35:00,
2013-05-29 04:50:00,68.3,50.0,29.63,WNW,290,0.0,4.0,52,0.00,,,0.00,weatherlink.com 1.10,2013-05-29 01:50:00,
2013-05-29 05:05:00,68.4,50.0,29.62,WNW,300,0.0,6.0,52,0.00,,,0.00,weatherlink.com 1.10,2013-05-29 02:05:00,
2013-05-29 05:20:00,69.0,48.0,29.62,WNW,287,0.0,4.0,47,0.00,,,0.00,weatherlink.com 1.10,2013-05-29 02:20:00,
2013-05-29 05:35:00,70.1,48.0,29.62,NW,315,0.0,6.0,45,0.00,,,0.00,weatherlink.com 1.10,2013-05-29 02:35:00,
2013-05-29 05:50:00,71.3,49.0,29.62,NW,319,5.0,13.0,46,0.00,,,0.00,weatherlink.com 1.10,2013-05-29 02:50:00,
2013-05-29 06:05:00,70.7,48.0,29.63,NW,317,5.0,6.0,45,0.00,,,0.00,weatherlink.com 1.10,2013-05-29 03:05:00,
2013-05-29 06:20:00,70.8,48.0,29.62,NE,55,1.0,4.0,45,0.00,,,0.00,weatherlink.com 1.10,2013-05-29 03:20:00,
2013-05-29 06:35:00,70.4,49.0,29.61,NW,323,0.0,4.0,46,0.00,,,0.00,weatherlink.com 1.10,2013-05-29 03:35:00,
2013-05-29 06:50:00,70.0,49.0,29.61,South,190,0.0,2.0,48,0.00,,,0.00,weatherlink.com 1.10,2013-05-29 03:50:00,
2013-05-29 07:05:00,71.8,51.0,29.60,SSE,154,4.0,14.0,49,0.00,,,0.00,weatherlink.com 1.10,2013-05-29 04:05:00,
2013-05-29 07:20:00,72.8,51.0,29.60,NW,325,4.0,21.0,47,0.00,,,0.00,weatherlink.com 1.10,2013-05-29 04:20:00,
2013-05-29 07:35:00,73.2,52.0,29.60,NE,40,1.0,10.0,47,0.00,,,0.00,weatherlink.com 1.10,2013-05-29 04:35:00,
2013-05-29 07:50:00,72.7,51.0,29.59,NNE,26,2.0,7.0,47,0.00,,,0.00,weatherlink.com 1.10,2013-05-29 04:50:00,
2013-05-29 08:05:00,73.4,53.0,29.59,East,86,4.0,20.0,49,0.00,,,0.00,weatherlink.com 1.10,2013-05-29 05:05:00,
2013-05-29 08:20:00,73.8,53.0,29.58,WNW,297,2.0,10.0,48,0.00,,,0.00,weatherlink.com 1.10,2013-05-29 05:20:00,
2013-05-29 08:35:00,74.4,53.0,29.58,NNW,340,2.0,8.0,47,0.00,,,0.00,weatherlink.com 1.10,2013-05-29 05:35:00,
2013-05-29 08:50:00,75.0,53.0,29.58,NE,36,2.0,10.0,47,0.00,,,0.00,weatherlink.com 1.10,2013-05-29 05:50:00,
2013-05-29 09:05:00,75.3,54.0,29.58,ESE,121,1.0,10.0,48,0.00,,,0.00,weatherlink.com 1.10,2013-05-29 06:05:00,
2013-05-29 09:20:00,76.5,54.0,29.57,NW,321,2.0,8.0,46,0.00,,,0.00,weatherlink.com 1.10,2013-05-29 06:20:00,
2013-05-29 09:35:00,77.8,54.0,29.57,NW,324,0.0,5.0,44,0.00,,,0.00,weatherlink.com 1.10,2013-05-29 06:35:00,
2013-05-29 09:50:00,78.0,54.0,29.57,NW,319,2.0,5.0,43,0.00,,,0.00,weatherlink.com 1.10,2013-05-29 06:50:00,
2013-05-29 10:05:00,78.7,54.0,29.57,West,269,2.0,3.0,43,0.00,,,0.00,weatherlink.com 1.10,2013-05-29 07:05:00,
2013-05-29 10:20:00,78.9,54.0,29.57,West,273,0.0,4.0,43,0.00,,,0.00,weatherlink.com 1.10,2013-05-29 07:20:00,
2013-05-29 10:35:00,79.1,55.0,29.57,SW,221,3.0,5.0,44,0.00,,,0.00,weatherlink.com 1.10,2013-05-29 07:35:00,
2013-05-29 10:50:00,79.0,56.0,29.57,SSW,213,1.0,9.0,46,0.00,,,0.00,weatherlink.com 1.10,2013-05-29 07:50:00,
2013-05-29 11:05:00,78.7,57.0,29.57,SW,214,1.0,8.0,47,0.00,,,0.00,weatherlink.com 1.10,2013-05-29 08:05:00,
2013-05-29 11:20:00,79.5,56.0,29.57,SSW,207,1.0,8.0,45,0.00,,,0.00,weatherlink.com 1.10,2013-05-29 08:20:00,
2013-05-29 11:35:00,78.3,56.0,29.57,SSW,202,2.0,8.0,47,0.00,,,0.00,weatherlink.com 1.10,2013-05-29 08:35:00,
2013-05-29 11:51:00,78.8,56.0,29.57,SSW,209,0.0,8.0,46,0.00,,,0.00,weatherlink.com 1.10,2013-05-29 08:51:00,
2013-05-29 12:06:00,80.2,58.0,29.57,SSW,205,0.0,7.0,46,0.00,,,0.00,weatherlink.com 1.10,2013-05-29 09:06:00,
2013-05-29 12:21:00,80.9,57.0,29.57,West,273,0.0,5.0,44,0.00,,,0.00,weatherlink.com 1.10,2013-05-29 09:21:00,
2013-05-29 12:36:00,81.4,57.0,29.58,NW,315,0.0,5.0,44,0.00,,,0.00,weatherlink.com 1.10,2013-05-29 09:36:00,
2013-05-29 12:51:00,81.8,58.0,29.58,SW,221,4.0,7.0,45,0.00,,,0.00,weatherlink.com 1.10,2013-05-29 09:51:00,
2013-05-29 13:06:00,81.0,59.0,29.58,SSW,204,1.0,9.0,47,0.00,,,0.00,weatherlink.com 1.10,2013-05-29 10:06:00,
2013-05-29 13:21:00,81.0,59.0,29.58,SSW,205,8.0,10.0,47,0.00,,,0.00,weatherlink.com 1.10,2013-05-29 10:21:00,
2013-05-29 13:36:00,80.2,58.0,29.58,SSW,207,1.0,9.0,47,0.00,,,0.00,weatherlink.com 1.10,2013-05-29 10:36:00,
2013-05-29 13:51:00,79.9,57.0,29.58,WSW,239,2.0,11.0,46,0.00,,,0.00,weatherlink.com 1.10,2013-05-29 10:51:00,
2013-05-29 14:06:00,81.6,58.0,29.57,West,275,0.0,8.0,45,0.00,,,0.00,weatherlink.com 1.10,2013-05-29 11:06:00,
2013-05-29 14:21:00,80.4,58.0,29.57,West,269,2.0,11.0,46,0.00,,,0.00,weatherlink.com 1.10,2013-05-29 11:21:00,
2013-05-29 14:36:00,79.8,57.0,29.58,SW,225,4.0,9.0,46,0.00,,,0.00,weatherlink.com 1.10,2013-05-29 11:36:00,
2013-05-29 14:51:00,80.1,58.0,29.58,SSW,205,7.0,10.0,47,0.00,,,0.00,weatherlink.com 1.10,2013-05-29 11:51:00,
2013-05-29 15:06:00,79.8,58.0,29.58,SW,222,0.0,10.0,47,0.00,,,0.00,weatherlink.com 1.10,2013-05-29 12:06:00,
2013-05-29 15:21:00,79.6,58.0,29.58,South,184,1.0,9.0,48,0.00,,,0.00,weatherlink.com 1.10,2013-05-29 12:21:00,
2013-05-29 15:36:00,79.9,58.0,29.57,SSW,209,7.0,8.0,47,0.00,,,0.00,weatherlink.com 1.10,2013-05-29 12:36:00,
2013-05-29 15:51:00,80.6,58.0,29.56,SW,223,6.0,10.0,47,0.00,,,0.00,weatherlink.com 1.10,2013-05-29 12:51:00,
2013-05-29 16:06:00,82.3,59.0,29.56,SSW,196,6.0,9.0,45,0.00,,,0.00,weatherlink.com 1.10,2013-05-29 13:06:00,
2013-05-29 16:21:00,80.4,61.0,29.56,South,188,5.0,13.0,51,0.00,,,0.00,weatherlink.com 1.10,2013-05-29 13:21:00,
2013-05-29 16:36:00,80.2,62.0,29.56,SW,230,11.0,14.0,54,0.00,,,0.00,weatherlink.com 1.10,2013-05-29 13:36:00,
2013-05-29 16:51:00,78.7,60.0,29.57,SSW,213,13.0,16.0,53,0.00,,,0.00,weatherlink.com 1.10,2013-05-29 13:51:00,
2013-05-29 17:06:00,78.0,61.0,29.57,WSW,245,7.0,14.0,57,0.00,,,0.00,weatherlink.com 1.10,2013-05-29 14:06:00,
2013-05-29 17:21:00,77.1,61.0,29.57,WSW,238,7.0,19.0,58,0.00,,,0.00,weatherlink.com 1.10,2013-05-29 14:21:00,
2013-05-29 17:36:00,77.1,60.0,29.57,South,182,12.0,18.0,55,0.00,,,0.00,weatherlink.com 1.10,2013-05-29 14:36:00,
2013-05-29 17:51:00,78.2,60.0,29.56,SW,221,5.0,11.0,53,0.00,,,0.00,weatherlink.com 1.10,2013-05-29 14:51:00,
2013-05-29 18:06:00,77.7,60.0,29.56,South,188,0.0,11.0,55,0.00,,,0.00,weatherlink.com 1.10,2013-05-29 15:06:00,
2013-05-29 18:21:00,77.9,61.0,29.56,WSW,239,4.0,10.0,56,0.00,,,0.00,weatherlink.com 1.10,2013-05-29 15:21:00,
2013-05-29 18:36:00,77.6,61.0,29.56,SSW,209,8.0,12.0,57,0.00,,,0.00,weatherlink.com 1.10,2013-05-29 15:36:00,
2013-05-29 18:51:00,77.0,61.0,29.56,SSW,194,8.0,10.0,58,0.00,,,0.00,weatherlink.com 1.10,2013-05-29 15:51:00,
2013-05-29 19:06:00,76.4,61.0,29.57,SSW,201,6.0,10.0,59,0.00,,,0.00,weatherlink.com 1.10,2013-05-29 16:06:00,
2013-05-29 19:21:00,75.4,61.0,29.58,SSW,205,7.0,13.0,62,0.00,,,0.00,weatherlink.com 1.10,2013-05-29 16:21:00,
2013-05-29 19:36:00,74.3,60.0,29.58,South,181,8.0,12.0,62,0.00,,,0.00,weatherlink.com 1.10,2013-05-29 16:36:00,
2013-05-29 19:51:00,73.7,60.0,29.59,SW,214,9.0,14.0,62,0.00,,,0.00,weatherlink.com 1.10,2013-05-29 16:51:00,
2013-05-29 20:06:00,73.4,59.0,29.59,South,173,5.0,14.0,61,0.00,,,0.00,weatherlink.com 1.10,2013-05-29 17:06:00,
2013-05-29 20:21:00,73.3,59.0,29.59,SW,216,4.0,12.0,61,0.00,,,0.00,weatherlink.com 1.10,2013-05-29 17:21:00,
2013-05-29 20:36:00,73.8,59.0,29.59,SSE,156,0.0,2.0,60,0.00,,,0.00,weatherlink.com 1.10,2013-05-29 17:36:00,
2013-05-29 20:51:00,73.9,59.0,29.59,South,183,0.0,4.0,61,0.00,,,0.00,weatherlink.com 1.10,2013-05-29 17:51:00,
2013-05-29 21:21:00,74.2,60.0,29.59,NW,326,1.0,4.0,61,0.00,,,0.00,weatherlink.com 1.10,2013-05-29 18:21:00,
2013-05-29 21:36:00,73.9,59.0,29.60,NW,322,0.0,2.0,59,0.00,,,0.00,weatherlink.com 1.10,2013-05-29 18:36:00,
2013-05-29 21:51:00,73.6,59.0,29.61,NW,322,0.0,0.0,60,0.00,,,0.00,weatherlink.com 1.10,2013-05-29 18:51:00,
2013-05-29 22:06:00,73.2,59.0,29.61,NW,322,2.0,2.0,62,0.00,,,0.00,weatherlink.com 1.10,2013-05-29 19:06:00,
2013-05-29 22:21:00,73.3,60.0,29.61,NW,322,0.0,4.0,63,0.00,,,0.00,weatherlink.com 1.10,2013-05-29 19:21:00,
2013-05-29 22:36:00,73.1,60.0,29.62,NW,322,1.0,2.0,64,0.00,,,0.00,weatherlink.com 1.10,2013-05-29 19:36:00,
2013-05-29 22:51:00,73.1,60.0,29.63,NW,323,0.0,2.0,64,0.00,,,0.00,weatherlink.com 1.10,2013-05-29 19:51:00,
2013-05-29 23:06:00,73.0,60.0,29.64,NW,323,2.0,2.0,64,0.00,,,0.00,weatherlink.com 1.10,2013-05-29 20:06:00,
2013-05-29 23:21:00,73.1,60.0,29.64,NW,323,0.0,1.0,63,0.00,,,0.00,weatherlink.com 1.10,2013-05-29 20:21:00,
2013-05-29 23:36:00,72.5,59.0,29.65,NW,309,0.0,2.0,63,0.00,,,0.00,weatherlink.com 1.10,2013-05-29 20:36:00,
2013-05-29 23:51:00,72.0,60.0,29.64,NW,320,0.0,2.0,65,0.00,,,0.00,weatherlink.com 1.10,2013-05-29 20:51:00,